Tyrone, Canada
Current Conditions -  °F | °C
As of 4:00 PM on Friday 19 Dec 2014 (Local Time) from CYOO Reporting Station
Overcast Overcast  
Wind Chill: 16°   Ceiling: 12000
Heat Index: 27°   Visibility: 9mi
Dew Point: 18°   Wind: 12mph
Humidity: 69%   Direction: 330°NNW
Pressure: 30.19"   Gusts: NA
Location:  44.02°N, 78.72°W
Report Text: CYOO 192100Z AUTO 33010KT 9SM OVC120 M03/M08 A3019 RMK SLP230
Loading
Personal Weather Stations






























Interactive Weather Map New forecast layout! Learn more

10-Day Weather Forecast

Advertisements
Track Severe Weather on mobile